Terminal Aerodrome Forecast
Issued by NWS

Home | Current Version | Previous Version | Text Only | Print | Product List | Glossary On
Versions: 1 2 3 4 5 6 7 8 9 10 11 12 13 14 15 16 17 18 19 20 21 22 23 24 25 26 27 28
149
FTUS42 KCAE 200531
TAFCUB
TAF
KCUB 200531Z 2006/2106 00000KT P6SM OVC150
     FM200900 13004KT 4SM BR OVC010
      TEMPO 2009/2012 2SM -RA BR OVC007
     FM201200 17005KT 2SM BR OVC007
     FM201700 24008KT P6SM SCT025 BKN050=

USA.gov is the U.S. government's official web portal to all federal, state and local government web resources and services.